sensor_id;sensor_type;location;lat;lon;timestamp;temperature;humidity
12907;DHT22;6521;50.498;8.474;2023-11-19T00:02:10;8.17;95.40
12907;DHT22;6521;50.498;8.474;2023-11-19T00:04:40;8.19;95.26
12907;DHT22;6521;50.498;8.474;2023-11-19T00:07:11;8.20;95.40
12907;DHT22;6521;50.498;8.474;2023-11-19T00:09:44;8.26;95.32
12907;DHT22;6521;50.498;8.474;2023-11-19T00:12:14;8.29;95.26
12907;DHT22;6521;50.498;8.474;2023-11-19T00:14:45;8.27;95.31
12907;DHT22;6521;50.498;8.474;2023-11-19T00:17:16;8.30;95.35
12907;DHT22;6521;50.498;8.474;2023-11-19T00:19:47;8.31;95.39
12907;DHT22;6521;50.498;8.474;2023-11-19T00:22:17;8.38;95.36
12907;DHT22;6521;50.498;8.474;2023-11-19T00:24:48;8.51;95.33
12907;DHT22;6521;50.498;8.474;2023-11-19T00:27:19;8.52;95.17
12907;DHT22;6521;50.498;8.474;2023-11-19T00:29:49;8.54;95.28
12907;DHT22;6521;50.498;8.474;2023-11-19T00:32:20;8.62;95.13
12907;DHT22;6521;50.498;8.474;2023-11-19T00:34:51;8.58;95.14
12907;DHT22;6521;50.498;8.474;2023-11-19T00:37:22;8.61;95.21
12907;DHT22;6521;50.498;8.474;2023-11-19T00:39:53;8.67;95.19
12907;DHT22;6521;50.498;8.474;2023-11-19T00:42:24;8.65;95.12
12907;DHT22;6521;50.498;8.474;2023-11-19T00:44:55;8.65;95.20
12907;DHT22;6521;50.498;8.474;2023-11-19T00:47:25;8.62;95.24
12907;DHT22;6521;50.498;8.474;2023-11-19T00:49:56;8.68;95.28
12907;DHT22;6521;50.498;8.474;2023-11-19T00:52:27;8.72;95.15
12907;DHT22;6521;50.498;8.474;2023-11-19T00:54:57;8.68;95.18
12907;DHT22;6521;50.498;8.474;2023-11-19T00:57:28;8.64;95.22
12907;DHT22;6521;50.498;8.474;2023-11-19T00:59:59;8.65;95.24
12907;DHT22;6521;50.498;8.474;2023-11-19T01:02:30;8.67;95.40
12907;DHT22;6521;50.498;8.474;2023-11-19T01:05:01;8.73;95.47
12907;DHT22;6521;50.498;8.474;2023-11-19T01:07:31;8.81;95.36
12907;DHT22;6521;50.498;8.474;2023-11-19T01:10:02;8.83;95.38
12907;DHT22;6521;50.498;8.474;2023-11-19T01:12:33;8.88;95.33
12907;DHT22;6521;50.498;8.474;2023-11-19T01:15:06;8.91;95.31
12907;DHT22;6521;50.498;8.474;2023-11-19T01:17:37;8.88;95.31
12907;DHT22;6521;50.498;8.474;2023-11-19T01:20:08;8.92;95.26
12907;DHT22;6521;50.498;8.474;2023-11-19T01:22:42;8.83;95.29
12907;DHT22;6521;50.498;8.474;2023-11-19T01:25:14;8.88;95.27
12907;DHT22;6521;50.498;8.474;2023-11-19T01:27:45;8.93;95.24
12907;DHT22;6521;50.498;8.474;2023-11-19T01:30:16;8.91;95.22
12907;DHT22;6521;50.498;8.474;2023-11-19T01:32:46;8.93;95.23
12907;DHT22;6521;50.498;8.474;2023-11-19T01:35:17;8.92;95.19
12907;DHT22;6521;50.498;8.474;2023-11-19T01:37:48;8.93;95.24
12907;DHT22;6521;50.498;8.474;2023-11-19T01:40:21;8.91;95.27
12907;DHT22;6521;50.498;8.474;2023-11-19T01:42:52;8.91;95.35
12907;DHT22;6521;50.498;8.474;2023-11-19T01:45:31;8.93;95.32
12907;DHT22;6521;50.498;8.474;2023-11-19T01:48:03;8.95;95.27
12907;DHT22;6521;50.498;8.474;2023-11-19T01:50:36;8.98;95.27
12907;DHT22;6521;50.498;8.474;2023-11-19T01:53:08;8.95;95.28
12907;DHT22;6521;50.498;8.474;2023-11-19T01:55:39;8.93;95.27
12907;DHT22;6521;50.498;8.474;2023-11-19T01:58:11;8.98;95.35
12907;DHT22;6521;50.498;8.474;2023-11-19T02:00:44;9.00;95.16
12907;DHT22;6521;50.498;8.474;2023-11-19T02:03:15;9.02;95.19
12907;DHT22;6521;50.498;8.474;2023-11-19T02:05:48;9.02;95.15
12907;DHT22;6521;50.498;8.474;2023-11-19T02:08:19;9.06;95.08
12907;DHT22;6521;50.498;8.474;2023-11-19T02:10:51;9.06;95.12
12907;DHT22;6521;50.498;8.474;2023-11-19T02:13:26;9.09;95.13
12907;DHT22;6521;50.498;8.474;2023-11-19T02:15:57;9.13;95.20
12907;DHT22;6521;50.498;8.474;2023-11-19T02:18:28;9.15;95.17
12907;DHT22;6521;50.498;8.474;2023-11-19T02:21:00;9.10;95.14
12907;DHT22;6521;50.498;8.474;2023-11-19T02:23:30;9.15;95.14
12907;DHT22;6521;50.498;8.474;2023-11-19T02:28:32;9.13;95.19
12907;DHT22;6521;50.498;8.474;2023-11-19T02:31:04;9.13;95.08
12907;DHT22;6521;50.498;8.474;2023-11-19T02:33:40;9.09;95.02
12907;DHT22;6521;50.498;8.474;2023-11-19T02:36:10;9.06;95.10
12907;DHT22;6521;50.498;8.474;2023-11-19T02:38:41;9.06;95.18
12907;DHT22;6521;50.498;8.474;2023-11-19T02:41:14;9.03;95.18
12907;DHT22;6521;50.498;8.474;2023-11-19T02:43:44;9.06;95.35
12907;DHT22;6521;50.498;8.474;2023-11-19T02:46:15;9.10;95.34
12907;DHT22;6521;50.498;8.474;2023-11-19T02:48:47;9.10;95.12
12907;DHT22;6521;50.498;8.474;2023-11-19T02:51:18;9.16;95.21
12907;DHT22;6521;50.498;8.474;2023-11-19T02:53:49;9.16;95.20
12907;DHT22;6521;50.498;8.474;2023-11-19T02:56:20;9.18;95.39
12907;DHT22;6521;50.498;8.474;2023-11-19T02:58:56;9.19;95.34
12907;DHT22;6521;50.498;8.474;2023-11-19T03:01:26;9.24;95.33
12907;DHT22;6521;50.498;8.474;2023-11-19T03:04:01;9.31;95.24
12907;DHT22;6521;50.498;8.474;2023-11-19T03:06:32;9.29;95.19
12907;DHT22;6521;50.498;8.474;2023-11-19T03:09:03;9.24;95.39
12907;DHT22;6521;50.498;8.474;2023-11-19T03:11:38;9.29;95.47
12907;DHT22;6521;50.498;8.474;2023-11-19T03:14:09;9.27;95.55
12907;DHT22;6521;50.498;8.474;2023-11-19T03:16:40;9.31;95.75
12907;DHT22;6521;50.498;8.474;2023-11-19T03:19:11;9.31;95.74
12907;DHT22;6521;50.498;8.474;2023-11-19T03:21:41;9.40;95.65
12907;DHT22;6521;50.498;8.474;2023-11-19T03:24:15;9.44;95.43
12907;DHT22;6521;50.498;8.474;2023-11-19T03:26:49;9.40;95.56
12907;DHT22;6521;50.498;8.474;2023-11-19T03:29:22;9.43;95.54
12907;DHT22;6521;50.498;8.474;2023-11-19T03:31:53;9.41;95.75
12907;DHT22;6521;50.498;8.474;2023-11-19T03:34:24;9.44;95.69
12907;DHT22;6521;50.498;8.474;2023-11-19T03:36:55;9.46;95.65
12907;DHT22;6521;50.498;8.474;2023-11-19T03:39:26;9.46;95.56
12907;DHT22;6521;50.498;8.474;2023-11-19T03:41:57;9.41;95.70
12907;DHT22;6521;50.498;8.474;2023-11-19T03:44:28;9.46;95.79
12907;DHT22;6521;50.498;8.474;2023-11-19T03:46:58;9.54;95.73
12907;DHT22;6521;50.498;8.474;2023-11-19T03:49:29;9.55;95.65
12907;DHT22;6521;50.498;8.474;2023-11-19T03:52:00;9.58;95.59
12907;DHT22;6521;50.498;8.474;2023-11-19T03:54:30;9.61;95.63
12907;DHT22;6521;50.498;8.474;2023-11-19T03:57:01;9.71;95.48
12907;DHT22;6521;50.498;8.474;2023-11-19T03:59:33;9.68;95.43
12907;DHT22;6521;50.498;8.474;2023-11-19T04:02:05;9.67;95.57
12907;DHT22;6521;50.498;8.474;2023-11-19T04:04:36;9.68;95.56
12907;DHT22;6521;50.498;8.474;2023-11-19T04:07:09;9.73;95.52
12907;DHT22;6521;50.498;8.474;2023-11-19T04:09:39;9.70;95.50
12907;DHT22;6521;50.498;8.474;2023-11-19T04:12:10;9.77;95.48
12907;DHT22;6521;50.498;8.474;2023-11-19T04:14:41;9.73;95.45
12907;DHT22;6521;50.498;8.474;2023-11-19T04:17:12;9.65;95.57
12907;DHT22;6521;50.498;8.474;2023-11-19T04:19:43;9.70;95.66
12907;DHT22;6521;50.498;8.474;2023-11-19T04:22:14;9.74;95.64
12907;DHT22;6521;50.498;8.474;2023-11-19T04:24:44;9.77;95.70
12907;DHT22;6521;50.498;8.474;2023-11-19T04:27:16;9.77;95.55
12907;DHT22;6521;50.498;8.474;2023-11-19T04:29:46;9.80;95.59
12907;DHT22;6521;50.498;8.474;2023-11-19T04:32:17;9.81;95.47
12907;DHT22;6521;50.498;8.474;2023-11-19T04:34:48;9.82;95.50
12907;DHT22;6521;50.498;8.474;2023-11-19T04:37:19;9.87;95.55
12907;DHT22;6521;50.498;8.474;2023-11-19T04:39:49;9.84;95.60
12907;DHT22;6521;50.498;8.474;2023-11-19T04:42:22;9.87;95.70
12907;DHT22;6521;50.498;8.474;2023-11-19T04:44:53;9.89;95.53
12907;DHT22;6521;50.498;8.474;2023-11-19T04:47:23;9.92;95.64
12907;DHT22;6521;50.498;8.474;2023-11-19T04:49:54;9.97;95.66
12907;DHT22;6521;50.498;8.474;2023-11-19T04:52:25;10.02;95.64
12907;DHT22;6521;50.498;8.474;2023-11-19T04:54:58;10.02;95.50
12907;DHT22;6521;50.498;8.474;2023-11-19T04:57:28;9.97;95.47
12907;DHT22;6521;50.498;8.474;2023-11-19T04:59:59;10.05;95.41
12907;DHT22;6521;50.498;8.474;2023-11-19T05:02:30;10.06;95.50
12907;DHT22;6521;50.498;8.474;2023-11-19T05:05:01;10.08;95.52
12907;DHT22;6521;50.498;8.474;2023-11-19T05:07:34;10.10;95.41
12907;DHT22;6521;50.498;8.474;2023-11-19T05:10:05;10.08;95.47
12907;DHT22;6521;50.498;8.474;2023-11-19T05:12:36;10.10;95.43
12907;DHT22;6521;50.498;8.474;2023-11-19T05:15:07;10.12;95.40
12907;DHT22;6521;50.498;8.474;2023-11-19T05:17:38;10.16;95.55
12907;DHT22;6521;50.498;8.474;2023-11-19T05:20:09;10.15;95.35
12907;DHT22;6521;50.498;8.474;2023-11-19T05:22:44;10.16;95.42
12907;DHT22;6521;50.498;8.474;2023-11-19T05:25:16;10.23;95.18
12907;DHT22;6521;50.498;8.474;2023-11-19T05:27:46;10.22;94.99
12907;DHT22;6521;50.498;8.474;2023-11-19T05:30:17;10.16;95.06
12907;DHT22;6521;50.498;8.474;2023-11-19T05:32:48;10.23;95.17
12907;DHT22;6521;50.498;8.474;2023-11-19T05:35:19;10.22;95.12
12907;DHT22;6521;50.498;8.474;2023-11-19T05:37:49;10.23;95.09
12907;DHT22;6521;50.498;8.474;2023-11-19T05:40:20;10.23;94.95
12907;DHT22;6521;50.498;8.474;2023-11-19T05:42:51;10.16;95.03
12907;DHT22;6521;50.498;8.474;2023-11-19T05:45:21;10.18;95.09
12907;DHT22;6521;50.498;8.474;2023-11-19T05:47:52;10.20;95.13
12907;DHT22;6521;50.498;8.474;2023-11-19T05:50:23;10.23;94.95
12907;DHT22;6521;50.498;8.474;2023-11-19T05:52:54;10.25;94.98
12907;DHT22;6521;50.498;8.474;2023-11-19T05:55:24;10.23;94.94
12907;DHT22;6521;50.498;8.474;2023-11-19T05:57:58;10.25;94.99
12907;DHT22;6521;50.498;8.474;2023-11-19T06:00:29;10.28;94.95
12907;DHT22;6521;50.498;8.474;2023-11-19T06:02:59;10.32;94.82
12907;DHT22;6521;50.498;8.474;2023-11-19T06:05:30;10.29;94.99
12907;DHT22;6521;50.498;8.474;2023-11-19T06:08:00;10.33;94.92
12907;DHT22;6521;50.498;8.474;2023-11-19T06:10:31;10.38;94.83
12907;DHT22;6521;50.498;8.474;2023-11-19T06:13:02;10.35;94.79
12907;DHT22;6521;50.498;8.474;2023-11-19T06:15:35;10.25;94.79
12907;DHT22;6521;50.498;8.474;2023-11-19T06:18:06;10.28;94.81
12907;DHT22;6521;50.498;8.474;2023-11-19T06:20:38;10.25;94.75
12907;DHT22;6521;50.498;8.474;2023-11-19T06:23:09;10.22;94.76
12907;DHT22;6521;50.498;8.474;2023-11-19T06:25:39;10.20;94.75
12907;DHT22;6521;50.498;8.474;2023-11-19T06:28:10;10.16;94.89
12907;DHT22;6521;50.498;8.474;2023-11-19T06:30:40;10.18;94.97
12907;DHT22;6521;50.498;8.474;2023-11-19T06:33:14;10.18;95.04
12907;DHT22;6521;50.498;8.474;2023-11-19T06:35:45;10.16;94.90
12907;DHT22;6521;50.498;8.474;2023-11-19T06:38:16;10.12;95.00
12907;DHT22;6521;50.498;8.474;2023-11-19T06:40:46;10.18;95.09
12907;DHT22;6521;50.498;8.474;2023-11-19T06:43:17;10.18;95.07
12907;DHT22;6521;50.498;8.474;2023-11-19T06:45:48;10.22;94.93
12907;DHT22;6521;50.498;8.474;2023-11-19T06:48:19;10.25;95.05
12907;DHT22;6521;50.498;8.474;2023-11-19T06:50:49;10.25;94.94
12907;DHT22;6521;50.498;8.474;2023-11-19T06:53:20;10.29;94.97
12907;DHT22;6521;50.498;8.474;2023-11-19T06:55:51;10.30;95.05
12907;DHT22;6521;50.498;8.474;2023-11-19T06:58:21;10.30;94.95
12907;DHT22;6521;50.498;8.474;2023-11-19T07:00:52;10.28;94.94
12907;DHT22;6521;50.498;8.474;2023-11-19T07:03:23;10.33;94.93
12907;DHT22;6521;50.498;8.474;2023-11-19T07:05:54;10.40;94.89
12907;DHT22;6521;50.498;8.474;2023-11-19T07:08:26;10.43;94.69
12907;DHT22;6521;50.498;8.474;2023-11-19T07:10:57;10.36;94.66
12907;DHT22;6521;50.498;8.474;2023-11-19T07:13:28;10.47;94.77
12907;DHT22;6521;50.498;8.474;2023-11-19T07:15:58;10.49;94.75
12907;DHT22;6521;50.498;8.474;2023-11-19T07:18:29;10.49;94.80
12907;DHT22;6521;50.498;8.474;2023-11-19T07:21:00;10.47;94.85
12907;DHT22;6521;50.498;8.474;2023-11-19T07:23:30;10.49;94.85
12907;DHT22;6521;50.498;8.474;2023-11-19T07:26:04;10.56;94.67
12907;DHT22;6521;50.498;8.474;2023-11-19T07:28:35;10.57;94.57
12907;DHT22;6521;50.498;8.474;2023-11-19T07:31:06;10.63;94.58
12907;DHT22;6521;50.498;8.474;2023-11-19T07:33:39;10.67;94.52
12907;DHT22;6521;50.498;8.474;2023-11-19T07:36:13;10.66;94.50
12907;DHT22;6521;50.498;8.474;2023-11-19T07:38:45;10.70;94.48
12907;DHT22;6521;50.498;8.474;2023-11-19T07:41:16;10.67;94.24
12907;DHT22;6521;50.498;8.474;2023-11-19T07:43:46;10.67;94.21
12907;DHT22;6521;50.498;8.474;2023-11-19T07:46:17;10.71;94.10
12907;DHT22;6521;50.498;8.474;2023-11-19T07:48:50;10.71;94.08
12907;DHT22;6521;50.498;8.474;2023-11-19T07:51:20;10.77;93.86
12907;DHT22;6521;50.498;8.474;2023-11-19T07:53:52;10.77;93.70
12907;DHT22;6521;50.498;8.474;2023-11-19T07:56:22;10.78;93.56
12907;DHT22;6521;50.498;8.474;2023-11-19T07:58:53;10.83;93.27
12907;DHT22;6521;50.498;8.474;2023-11-19T08:01:23;10.87;92.95
12907;DHT22;6521;50.498;8.474;2023-11-19T08:03:54;10.87;92.72
12907;DHT22;6521;50.498;8.474;2023-11-19T08:06:25;10.88;92.65
12907;DHT22;6521;50.498;8.474;2023-11-19T08:08:56;10.90;92.65
12907;DHT22;6521;50.498;8.474;2023-11-19T08:11:26;10.93;92.48
12907;DHT22;6521;50.498;8.474;2023-11-19T08:13:57;10.94;92.35
12907;DHT22;6521;50.498;8.474;2023-11-19T08:16:28;10.98;92.37
12907;DHT22;6521;50.498;8.474;2023-11-19T08:18:59;11.04;92.24
12907;DHT22;6521;50.498;8.474;2023-11-19T08:21:30;11.07;91.95
12907;DHT22;6521;50.498;8.474;2023-11-19T08:24:00;11.14;91.66
12907;DHT22;6521;50.498;8.474;2023-11-19T08:26:31;11.11;91.20
12907;DHT22;6521;50.498;8.474;2023-11-19T08:32:55;11.21;90.91
12907;DHT22;6521;50.498;8.474;2023-11-19T08:35:25;11.29;90.60
12907;DHT22;6521;50.498;8.474;2023-11-19T08:37:56;11.31;90.37
12907;DHT22;6521;50.498;8.474;2023-11-19T08:40:28;11.31;89.84
12907;DHT22;6521;50.498;8.474;2023-11-19T08:43:00;11.26;89.66
12907;DHT22;6521;50.498;8.474;2023-11-19T08:45:31;11.28;89.15
12907;DHT22;6521;50.498;8.474;2023-11-19T08:48:02;11.28;89.07
12907;DHT22;6521;50.498;8.474;2023-11-19T08:50:33;11.32;88.52
12907;DHT22;6521;50.498;8.474;2023-11-19T08:53:03;11.31;88.45
12907;DHT22;6521;50.498;8.474;2023-11-19T08:55:37;11.32;88.69
12907;DHT22;6521;50.498;8.474;2023-11-19T08:58:07;11.35;88.31
12907;DHT22;6521;50.498;8.474;2023-11-19T09:00:38;11.35;87.73
12907;DHT22;6521;50.498;8.474;2023-11-19T09:03:09;11.38;86.40
12907;DHT22;6521;50.498;8.474;2023-11-19T09:05:40;11.40;85.80
12907;DHT22;6521;50.498;8.474;2023-11-19T09:08:10;11.43;83.99
12907;DHT22;6521;50.498;8.474;2023-11-19T09:10:42;11.46;83.77
12907;DHT22;6521;50.498;8.474;2023-11-19T09:13:13;11.47;82.47
12907;DHT22;6521;50.498;8.474;2023-11-19T09:15:43;11.51;82.46
12907;DHT22;6521;50.498;8.474;2023-11-19T09:18:14;11.54;81.65
12907;DHT22;6521;50.498;8.474;2023-11-19T09:20:45;11.56;80.91
12907;DHT22;6521;50.498;8.474;2023-11-19T09:23:16;11.63;81.12
12907;DHT22;6521;50.498;8.474;2023-11-19T09:25:47;11.66;80.68
12907;DHT22;6521;50.498;8.474;2023-11-19T09:28:17;11.75;79.60
12907;DHT22;6521;50.498;8.474;2023-11-19T09:30:48;11.76;80.39
12907;DHT22;6521;50.498;8.474;2023-11-19T09:33:19;11.86;79.82
12907;DHT22;6521;50.498;8.474;2023-11-19T09:35:50;12.03;78.36
12907;DHT22;6521;50.498;8.474;2023-11-19T09:38:21;12.18;76.73
12907;DHT22;6521;50.498;8.474;2023-11-19T09:40:52;12.41;74.57
12907;DHT22;6521;50.498;8.474;2023-11-19T09:43:22;12.66;74.65
12907;DHT22;6521;50.498;8.474;2023-11-19T09:45:54;12.91;74.33
12907;DHT22;6521;50.498;8.474;2023-11-19T09:48:26;13.16;72.12
12907;DHT22;6521;50.498;8.474;2023-11-19T09:50:58;13.27;71.02
12907;DHT22;6521;50.498;8.474;2023-11-19T09:53:30;13.40;70.26
12907;DHT22;6521;50.498;8.474;2023-11-19T09:56:02;13.55;69.45
12907;DHT22;6521;50.498;8.474;2023-11-19T09:58:33;13.71;70.23
12907;DHT22;6521;50.498;8.474;2023-11-19T10:01:04;13.88;68.06
12907;DHT22;6521;50.498;8.474;2023-11-19T10:03:40;13.91;66.32
12907;DHT22;6521;50.498;8.474;2023-11-19T10:06:12;14.01;67.35
12907;DHT22;6521;50.498;8.474;2023-11-19T10:08:44;14.25;67.74
12907;DHT22;6521;50.498;8.474;2023-11-19T10:11:14;14.47;66.31
12907;DHT22;6521;50.498;8.474;2023-11-19T10:13:46;14.50;65.04
12907;DHT22;6521;50.498;8.474;2023-11-19T10:16:18;14.59;65.74
12907;DHT22;6521;50.498;8.474;2023-11-19T10:18:49;14.51;63.88
12907;DHT22;6521;50.498;8.474;2023-11-19T10:21:24;14.47;63.96
12907;DHT22;6521;50.498;8.474;2023-11-19T10:23:56;14.51;66.15
12907;DHT22;6521;50.498;8.474;2023-11-19T10:26:33;14.71;65.06
12907;DHT22;6521;50.498;8.474;2023-11-19T10:29:06;14.80;64.54
12907;DHT22;6521;50.498;8.474;2023-11-19T10:31:37;14.87;63.91
12907;DHT22;6521;50.498;8.474;2023-11-19T10:34:24;14.94;62.78
12907;DHT22;6521;50.498;8.474;2023-11-19T10:36:55;14.90;62.84
12907;DHT22;6521;50.498;8.474;2023-11-19T10:39:52;14.78;63.30
12907;DHT22;6521;50.498;8.474;2023-11-19T10:42:26;14.77;64.12
12907;DHT22;6521;50.498;8.474;2023-11-19T10:44:57;14.88;61.99
12907;DHT22;6521;50.498;8.474;2023-11-19T10:47:29;14.74;62.12
12907;DHT22;6521;50.498;8.474;2023-11-19T10:50:01;14.70;62.62
12907;DHT22;6521;50.498;8.474;2023-11-19T10:52:32;14.63;62.29
12907;DHT22;6521;50.498;8.474;2023-11-19T10:55:08;14.71;63.28
12907;DHT22;6521;50.498;8.474;2023-11-19T10:57:43;14.83;62.54
12907;DHT22;6521;50.498;8.474;2023-11-19T11:00:15;14.85;62.16
12907;DHT22;6521;50.498;8.474;2023-11-19T11:02:50;14.91;62.25
12907;DHT22;6521;50.498;8.474;2023-11-19T11:05:25;14.94;62.65
12907;DHT22;6521;50.498;8.474;2023-11-19T11:07:58;14.87;62.08
12907;DHT22;6521;50.498;8.474;2023-11-19T11:10:32;15.04;61.51
12907;DHT22;6521;50.498;8.474;2023-11-19T11:13:06;14.99;61.27
12907;DHT22;6521;50.498;8.474;2023-11-19T11:15:38;15.01;61.44
12907;DHT22;6521;50.498;8.474;2023-11-19T11:18:09;14.88;60.37
12907;DHT22;6521;50.498;8.474;2023-11-19T11:20:40;14.88;60.68
12907;DHT22;6521;50.498;8.474;2023-11-19T11:23:47;14.91;60.91
12907;DHT22;6521;50.498;8.474;2023-11-19T11:32:34;15.05;59.94
12907;DHT22;6521;50.498;8.474;2023-11-19T11:35:24;14.97;60.90
12907;DHT22;6521;50.498;8.474;2023-11-19T11:38:07;15.07;60.28
12907;DHT22;6521;50.498;8.474;2023-11-19T11:40:38;15.05;60.79
12907;DHT22;6521;50.498;8.474;2023-11-19T11:43:45;15.07;60.52
12907;DHT22;6521;50.498;8.474;2023-11-19T11:49:04;14.85;61.43
12907;DHT22;6521;50.498;8.474;2023-11-19T11:57:12;14.64;60.65
12907;DHT22;6521;50.498;8.474;2023-11-19T11:59:47;14.64;60.11
12907;DHT22;6521;50.498;8.474;2023-11-19T12:02:20;14.57;61.42
12907;DHT22;6521;50.498;8.474;2023-11-19T12:04:52;14.59;61.00
12907;DHT22;6521;50.498;8.474;2023-11-19T12:07:24;14.41;60.83
12907;DHT22;6521;50.498;8.474;2023-11-19T12:10:07;14.28;61.80
12907;DHT22;6521;50.498;8.474;2023-11-19T12:12:39;14.20;62.48
12907;DHT22;6521;50.498;8.474;2023-11-19T12:15:12;14.36;62.67
12907;DHT22;6521;50.498;8.474;2023-11-19T12:17:49;14.49;61.87
12907;DHT22;6521;50.498;8.474;2023-11-19T12:20:25;14.66;62.03
12907;DHT22;6521;50.498;8.474;2023-11-19T12:22:56;14.73;60.61
12907;DHT22;6521;50.498;8.474;2023-11-19T12:25:27;14.51;62.28
12907;DHT22;6521;50.498;8.474;2023-11-19T12:28:04;14.29;62.69
12907;DHT22;6521;50.498;8.474;2023-11-19T12:30:35;14.16;63.01
12907;DHT22;6521;50.498;8.474;2023-11-19T12:33:10;14.01;63.57
12907;DHT22;6521;50.498;8.474;2023-11-19T12:35:42;13.86;63.38
12907;DHT22;6521;50.498;8.474;2023-11-19T12:38:20;13.97;62.47
12907;DHT22;6521;50.498;8.474;2023-11-19T12:41:06;13.91;61.92
12907;DHT22;6521;50.498;8.474;2023-11-19T12:43:38;13.83;62.63
12907;DHT22;6521;50.498;8.474;2023-11-19T12:46:22;13.85;62.69
12907;DHT22;6521;50.498;8.474;2023-11-19T12:48:54;13.98;61.56
12907;DHT22;6521;50.498;8.474;2023-11-19T12:51:30;14.18;62.66
12907;DHT22;6521;50.498;8.474;2023-11-19T12:54:01;14.18;60.38
12907;DHT22;6521;50.498;8.474;2023-11-19T12:56:32;14.32;60.70
12907;DHT22;6521;50.498;8.474;2023-11-19T12:59:12;14.37;61.87
12907;DHT22;6521;50.498;8.474;2023-11-19T13:01:56;14.29;61.25
12907;DHT22;6521;50.498;8.474;2023-11-19T13:04:30;14.09;62.09
12907;DHT22;6521;50.498;8.474;2023-11-19T13:07:03;14.12;62.31
12907;DHT22;6521;50.498;8.474;2023-11-19T13:09:35;14.23;62.48
12907;DHT22;6521;50.498;8.474;2023-11-19T13:12:15;14.36;61.61
12907;DHT22;6521;50.498;8.474;2023-11-19T13:14:47;14.47;61.57
12907;DHT22;6521;50.498;8.474;2023-11-19T13:17:19;14.49;60.57
12907;DHT22;6521;50.498;8.474;2023-11-19T13:19:51;14.25;61.34
12907;DHT22;6521;50.498;8.474;2023-11-19T13:22:22;14.01;61.97
12907;DHT22;6521;50.498;8.474;2023-11-19T13:24:53;13.85;61.36
12907;DHT22;6521;50.498;8.474;2023-11-19T13:27:24;13.70;62.10
12907;DHT22;6521;50.498;8.474;2023-11-19T13:29:55;13.62;62.71
12907;DHT22;6521;50.498;8.474;2023-11-19T13:32:25;13.48;63.91
12907;DHT22;6521;50.498;8.474;2023-11-19T13:34:57;13.41;63.69
12907;DHT22;6521;50.498;8.474;2023-11-19T13:37:27;13.39;63.68
12907;DHT22;6521;50.498;8.474;2023-11-19T13:39:58;13.61;63.60
12907;DHT22;6521;50.498;8.474;2023-11-19T13:42:29;13.70;63.22
12907;DHT22;6521;50.498;8.474;2023-11-19T13:45:00;13.79;62.98
12907;DHT22;6521;50.498;8.474;2023-11-19T13:47:30;13.97;63.02
12907;DHT22;6521;50.498;8.474;2023-11-19T13:50:01;14.06;63.55
12907;DHT22;6521;50.498;8.474;2023-11-19T13:52:31;14.18;62.44
12907;DHT22;6521;50.498;8.474;2023-11-19T13:55:02;14.18;62.85
12907;DHT22;6521;50.498;8.474;2023-11-19T13:57:36;13.99;63.13
12907;DHT22;6521;50.498;8.474;2023-11-19T14:00:09;13.83;63.06
12907;DHT22;6521;50.498;8.474;2023-11-19T14:02:48;13.68;64.23
12907;DHT22;6521;50.498;8.474;2023-11-19T14:05:19;13.55;65.07
12907;DHT22;6521;50.498;8.474;2023-11-19T14:07:49;13.44;65.72
12907;DHT22;6521;50.498;8.474;2023-11-19T14:10:22;13.36;66.22
12907;DHT22;6521;50.498;8.474;2023-11-19T14:12:53;13.23;68.22
12907;DHT22;6521;50.498;8.474;2023-11-19T14:15:24;13.04;69.89
12907;DHT22;6521;50.498;8.474;2023-11-19T14:17:54;12.89;70.56
12907;DHT22;6521;50.498;8.474;2023-11-19T14:20:25;12.75;71.92
12907;DHT22;6521;50.498;8.474;2023-11-19T14:22:56;12.68;72.53
12907;DHT22;6521;50.498;8.474;2023-11-19T14:25:27;12.61;73.02
12907;DHT22;6521;50.498;8.474;2023-11-19T14:27:58;12.61;73.66
12907;DHT22;6521;50.498;8.474;2023-11-19T14:30:29;12.62;73.56
12907;DHT22;6521;50.498;8.474;2023-11-19T14:33:00;12.72;73.63
12907;DHT22;6521;50.498;8.474;2023-11-19T14:35:30;12.71;73.18
12907;DHT22;6521;50.498;8.474;2023-11-19T14:38:03;12.68;73.39
12907;DHT22;6521;50.498;8.474;2023-11-19T14:40:40;12.68;73.32
12907;DHT22;6521;50.498;8.474;2023-11-19T14:43:13;12.76;71.07
12907;DHT22;6521;50.498;8.474;2023-11-19T14:45:45;12.79;68.98
12907;DHT22;6521;50.498;8.474;2023-11-19T14:48:17;12.85;69.01
12907;DHT22;6521;50.498;8.474;2023-11-19T14:50:48;12.73;71.37
12907;DHT22;6521;50.498;8.474;2023-11-19T14:53:20;12.64;73.08
12907;DHT22;6521;50.498;8.474;2023-11-19T14:55:51;12.44;76.75
12907;DHT22;6521;50.498;8.474;2023-11-19T14:58:21;12.14;78.50
12907;DHT22;6521;50.498;8.474;2023-11-19T15:00:52;11.93;79.33
12907;DHT22;6521;50.498;8.474;2023-11-19T15:03:23;11.72;80.23
12907;DHT22;6521;50.498;8.474;2023-11-19T15:05:54;11.65;79.92
12907;DHT22;6521;50.498;8.474;2023-11-19T15:08:25;11.55;80.25
12907;DHT22;6521;50.498;8.474;2023-11-19T15:10:55;11.46;80.81
12907;DHT22;6521;50.498;8.474;2023-11-19T15:13:29;11.34;81.67
12907;DHT22;6521;50.498;8.474;2023-11-19T15:16:00;11.17;82.12
12907;DHT22;6521;50.498;8.474;2023-11-19T15:18:31;11.10;82.63
12907;DHT22;6521;50.498;8.474;2023-11-19T15:21:02;11.03;82.78
12907;DHT22;6521;50.498;8.474;2023-11-19T15:23:33;11.01;82.93
12907;DHT22;6521;50.498;8.474;2023-11-19T15:26:04;11.04;82.93
12907;DHT22;6521;50.498;8.474;2023-11-19T15:28:37;11.01;82.51
12907;DHT22;6521;50.498;8.474;2023-11-19T15:31:08;11.03;81.31
12907;DHT22;6521;50.498;8.474;2023-11-19T15:33:39;11.04;80.39
12907;DHT22;6521;50.498;8.474;2023-11-19T15:36:09;11.10;78.53
12907;DHT22;6521;50.498;8.474;2023-11-19T15:38:40;11.32;76.00
12907;DHT22;6521;50.498;8.474;2023-11-19T15:41:11;11.45;75.08
12907;DHT22;6521;50.498;8.474;2023-11-19T15:43:42;11.47;75.53
12907;DHT22;6521;50.498;8.474;2023-11-19T15:46:13;11.49;75.61
12907;DHT22;6521;50.498;8.474;2023-11-19T15:48:43;11.47;74.76
12907;DHT22;6521;50.498;8.474;2023-11-19T15:51:14;11.46;74.20
12907;DHT22;6521;50.498;8.474;2023-11-19T15:53:45;11.49;74.31
12907;DHT22;6521;50.498;8.474;2023-11-19T15:56:16;11.46;74.39
12907;DHT22;6521;50.498;8.474;2023-11-19T15:58:47;11.45;74.41
12907;DHT22;6521;50.498;8.474;2023-11-19T16:01:19;11.52;74.06
12907;DHT22;6521;50.498;8.474;2023-11-19T16:03:50;11.51;73.82
12907;DHT22;6521;50.498;8.474;2023-11-19T16:06:22;11.55;74.00
12907;DHT22;6521;50.498;8.474;2023-11-19T16:08:55;11.51;74.81
12907;DHT22;6521;50.498;8.474;2023-11-19T16:11:26;11.42;75.50
12907;DHT22;6521;50.498;8.474;2023-11-19T16:13:57;11.36;75.96
12907;DHT22;6521;50.498;8.474;2023-11-19T16:16:27;11.38;76.43
12907;DHT22;6521;50.498;8.474;2023-11-19T16:18:59;11.31;77.14
12907;DHT22;6521;50.498;8.474;2023-11-19T16:21:29;11.34;77.91
12907;DHT22;6521;50.498;8.474;2023-11-19T16:24:03;11.25;78.77
12907;DHT22;6521;50.498;8.474;2023-11-19T16:26:35;11.08;79.62
12907;DHT22;6521;50.498;8.474;2023-11-19T16:29:07;11.04;80.17
12907;DHT22;6521;50.498;8.474;2023-11-19T16:31:37;10.97;81.03
12907;DHT22;6521;50.498;8.474;2023-11-19T16:34:09;10.85;81.42
12907;DHT22;6521;50.498;8.474;2023-11-19T16:36:39;10.80;81.77
12907;DHT22;6521;50.498;8.474;2023-11-19T16:39:11;10.73;82.13
12907;DHT22;6521;50.498;8.474;2023-11-19T16:41:43;10.71;82.39